world map with SJP marked

SJP - Airport

This information may not be accurate or current and is not valid for navigation or flight planning. No warranty of fitness for any purpose is made or implied.

flag of São Pauloflag of Brazil

Donate via PayPal

Additional information is available on the NEW Great Circle Mapper

Location
City:  São José do Rio Preto, São Paulo, Brazil
ICAO / IATA:SBSR / SJP

Details
Type:Airport (Aerodrome, Airfield)
Latitude:20°49'00"S (-20.816566)
Longitude:49°24'23"W (-49.406510)
Datum:WGS 1984
Elevation:1784 ft (544 m)
Runways:1
Longest:5381 × 115 ft (1640 × 35 m)

Time
Timezone:UTC+31:08 (DST+34:08)
Local Time:

Weather
METAR:SBSR  041400Z 32005KT 9999 SCT030 27/18 Q1017
TAF:SBSR  (expired)

Related Locations
Nearby:
Farthest:MMD: 12081 mi / 19443 km
Minamidaito [Minami Daito Airport], Minamidaito Jima, 47, JP

Find:

   beyond  
but within

Other Information
Maps:
Sources:

  


 


Great Circle Mapper   Great Circle Mapper
Great Circle Mapper FAQ   Great Circle Mapper FAQ
  Karl's Home Page
KLS²   KLS² Home
   GC on Facebook
Airlines of the World   Airlines of the World
Donate via PayPal


Copyright © 2004-2020, Karl L. Swartz. All rights reserved.
All trademarks mentioned herein belong to their respective owners.

Please see credits for attribution and copyright information.

Karl Swartz <karl@kls2.com>
  Powered by FreeBSD
Valid HTML 4.01!
Labeled with ICRA
hCard Microformat
Geo Microformat